sensor_id;sensor_type;location;lat;lon;timestamp;temperature;humidity
18392;DHT22;9322;50.932;5.318;2023-05-10T00:00:40;13.90;1.40
18392;DHT22;9322;50.932;5.318;2023-05-10T00:03:06;14.00;1.40
18392;DHT22;9322;50.932;5.318;2023-05-10T00:05:32;13.90;1.40
18392;DHT22;9322;50.932;5.318;2023-05-10T00:07:58;13.90;1.40
18392;DHT22;9322;50.932;5.318;2023-05-10T00:10:23;13.90;1.40
18392;DHT22;9322;50.932;5.318;2023-05-10T00:12:49;14.00;1.40
18392;DHT22;9322;50.932;5.318;2023-05-10T00:15:15;13.90;1.40
18392;DHT22;9322;50.932;5.318;2023-05-10T00:17:40;13.90;1.40
18392;DHT22;9322;50.932;5.318;2023-05-10T00:20:06;13.70;1.40
18392;DHT22;9322;50.932;5.318;2023-05-10T00:22:32;13.70;1.40
18392;DHT22;9322;50.932;5.318;2023-05-10T00:24:58;13.70;1.40
18392;DHT22;9322;50.932;5.318;2023-05-10T00:27:24;13.80;1.40
18392;DHT22;9322;50.932;5.318;2023-05-10T00:29:50;13.80;1.40
18392;DHT22;9322;50.932;5.318;2023-05-10T00:32:15;13.80;1.40
18392;DHT22;9322;50.932;5.318;2023-05-10T00:34:42;13.80;1.40
18392;DHT22;9322;50.932;5.318;2023-05-10T00:37:07;13.80;1.40
18392;DHT22;9322;50.932;5.318;2023-05-10T00:39:33;13.80;1.40
18392;DHT22;9322;50.932;5.318;2023-05-10T00:41:59;13.90;1.40
18392;DHT22;9322;50.932;5.318;2023-05-10T00:44:25;13.90;1.40
18392;DHT22;9322;50.932;5.318;2023-05-10T00:46:51;13.90;1.40
18392;DHT22;9322;50.932;5.318;2023-05-10T00:49:18;13.90;1.40
18392;DHT22;9322;50.932;5.318;2023-05-10T00:51:44;14.00;1.40
18392;DHT22;9322;50.932;5.318;2023-05-10T00:54:14;13.90;1.40
18392;DHT22;9322;50.932;5.318;2023-05-10T00:56:40;13.90;1.40
18392;DHT22;9322;50.932;5.318;2023-05-10T00:59:08;13.80;1.40
18392;DHT22;9322;50.932;5.318;2023-05-10T01:01:35;13.90;1.40
18392;DHT22;9322;50.932;5.318;2023-05-10T01:04:02;13.90;1.40
18392;DHT22;9322;50.932;5.318;2023-05-10T01:06:28;13.80;1.40
18392;DHT22;9322;50.932;5.318;2023-05-10T01:08:54;13.70;1.40
18392;DHT22;9322;50.932;5.318;2023-05-10T01:11:21;13.70;1.40
18392;DHT22;9322;50.932;5.318;2023-05-10T01:13:52;13.70;1.40
18392;DHT22;9322;50.932;5.318;2023-05-10T01:16:20;13.70;1.40
18392;DHT22;9322;50.932;5.318;2023-05-10T01:18:46;13.70;1.40
18392;DHT22;9322;50.932;5.318;2023-05-10T01:32:36;13.60;1.40
18392;DHT22;9322;50.932;5.318;2023-05-10T01:35:33;13.70;1.40
18392;DHT22;9322;50.932;5.318;2023-05-10T01:41:07;13.70;1.40
18392;DHT22;9322;50.932;5.318;2023-05-10T01:47:01;13.90;1.40
18392;DHT22;9322;50.932;5.318;2023-05-10T01:49:39;13.70;1.40
18392;DHT22;9322;50.932;5.318;2023-05-10T01:52:10;13.70;1.40
18392;DHT22;9322;50.932;5.318;2023-05-10T01:54:42;13.80;1.40
18392;DHT22;9322;50.932;5.318;2023-05-10T01:57:10;13.60;1.40
18392;DHT22;9322;50.932;5.318;2023-05-10T01:59:40;13.60;1.40
18392;DHT22;9322;50.932;5.318;2023-05-10T02:02:10;13.50;1.40
18392;DHT22;9322;50.932;5.318;2023-05-10T02:04:39;13.60;1.40
18392;DHT22;9322;50.932;5.318;2023-05-10T02:07:05;13.50;1.40
18392;DHT22;9322;50.932;5.318;2023-05-10T02:09:33;13.50;1.40
18392;DHT22;9322;50.932;5.318;2023-05-10T02:12:01;13.60;1.40
18392;DHT22;9322;50.932;5.318;2023-05-10T02:14:32;13.60;1.40
18392;DHT22;9322;50.932;5.318;2023-05-10T02:17:00;13.70;1.40
18392;DHT22;9322;50.932;5.318;2023-05-10T02:19:28;13.70;1.40
18392;DHT22;9322;50.932;5.318;2023-05-10T02:21:57;13.60;1.40
18392;DHT22;9322;50.932;5.318;2023-05-10T02:24:24;13.60;1.40
18392;DHT22;9322;50.932;5.318;2023-05-10T02:26:51;13.70;1.40
18392;DHT22;9322;50.932;5.318;2023-05-10T02:29:19;13.50;1.40
18392;DHT22;9322;50.932;5.318;2023-05-10T02:31:46;13.50;1.40
18392;DHT22;9322;50.932;5.318;2023-05-10T02:34:12;13.60;1.40
18392;DHT22;9322;50.932;5.318;2023-05-10T02:36:40;13.70;1.40
18392;DHT22;9322;50.932;5.318;2023-05-10T02:39:06;13.60;1.40
18392;DHT22;9322;50.932;5.318;2023-05-10T02:41:36;13.60;1.40
18392;DHT22;9322;50.932;5.318;2023-05-10T02:44:05;13.60;1.40
18392;DHT22;9322;50.932;5.318;2023-05-10T02:46:33;13.70;1.40
18392;DHT22;9322;50.932;5.318;2023-05-10T02:48:59;13.70;1.40
18392;DHT22;9322;50.932;5.318;2023-05-10T02:51:30;13.60;1.40
18392;DHT22;9322;50.932;5.318;2023-05-10T02:53:57;13.50;1.40
18392;DHT22;9322;50.932;5.318;2023-05-10T02:56:33;13.60;1.40
18392;DHT22;9322;50.932;5.318;2023-05-10T02:59:00;13.70;1.40
18392;DHT22;9322;50.932;5.318;2023-05-10T03:01:26;13.70;1.40
18392;DHT22;9322;50.932;5.318;2023-05-10T03:03:52;13.70;1.40
18392;DHT22;9322;50.932;5.318;2023-05-10T03:06:18;13.70;1.40
18392;DHT22;9322;50.932;5.318;2023-05-10T03:08:44;13.60;1.40
18392;DHT22;9322;50.932;5.318;2023-05-10T03:11:32;13.60;1.40
18392;DHT22;9322;50.932;5.318;2023-05-10T03:17:45;13.70;1.40
18392;DHT22;9322;50.932;5.318;2023-05-10T03:19:56;13.70;1.40
18392;DHT22;9322;50.932;5.318;2023-05-10T03:22:34;13.50;1.40
18392;DHT22;9322;50.932;5.318;2023-05-10T03:25:05;13.50;1.40
18392;DHT22;9322;50.932;5.318;2023-05-10T03:27:32;13.60;1.40
18392;DHT22;9322;50.932;5.318;2023-05-10T03:29:59;13.60;1.40
18392;DHT22;9322;50.932;5.318;2023-05-10T03:32:29;13.50;1.40
18392;DHT22;9322;50.932;5.318;2023-05-10T03:34:55;13.50;1.40
18392;DHT22;9322;50.932;5.318;2023-05-10T03:37:21;13.60;1.40
18392;DHT22;9322;50.932;5.318;2023-05-10T03:39:47;13.60;1.40
18392;DHT22;9322;50.932;5.318;2023-05-10T03:42:12;13.70;1.40
18392;DHT22;9322;50.932;5.318;2023-05-10T03:44:39;13.70;1.40
18392;DHT22;9322;50.932;5.318;2023-05-10T03:47:05;13.60;1.40
18392;DHT22;9322;50.932;5.318;2023-05-10T03:49:31;13.50;1.40
18392;DHT22;9322;50.932;5.318;2023-05-10T03:51:56;13.60;1.40
18392;DHT22;9322;50.932;5.318;2023-05-10T03:54:22;13.70;1.40
18392;DHT22;9322;50.932;5.318;2023-05-10T03:56:48;13.70;1.40
18392;DHT22;9322;50.932;5.318;2023-05-10T03:59:13;13.70;1.40
18392;DHT22;9322;50.932;5.318;2023-05-10T04:01:39;13.70;1.40
18392;DHT22;9322;50.932;5.318;2023-05-10T04:04:05;13.70;1.40
18392;DHT22;9322;50.932;5.318;2023-05-10T04:06:30;13.70;1.40
18392;DHT22;9322;50.932;5.318;2023-05-10T04:08:57;13.70;1.40
18392;DHT22;9322;50.932;5.318;2023-05-10T04:11:25;13.70;1.40
18392;DHT22;9322;50.932;5.318;2023-05-10T04:13:51;13.60;1.40
18392;DHT22;9322;50.932;5.318;2023-05-10T04:16:17;13.60;1.40
18392;DHT22;9322;50.932;5.318;2023-05-10T04:18:42;13.50;1.40
18392;DHT22;9322;50.932;5.318;2023-05-10T04:21:14;13.60;1.40
18392;DHT22;9322;50.932;5.318;2023-05-10T04:23:41;13.60;1.40
18392;DHT22;9322;50.932;5.318;2023-05-10T04:26:06;13.60;1.40
18392;DHT22;9322;50.932;5.318;2023-05-10T04:28:32;13.70;1.40
18392;DHT22;9322;50.932;5.318;2023-05-10T04:31:05;13.60;1.40
18392;DHT22;9322;50.932;5.318;2023-05-10T04:33:32;13.60;1.40
18392;DHT22;9322;50.932;5.318;2023-05-10T04:35:58;13.60;1.40
18392;DHT22;9322;50.932;5.318;2023-05-10T04:38:23;13.50;1.40
18392;DHT22;9322;50.932;5.318;2023-05-10T04:40:50;13.50;1.40
18392;DHT22;9322;50.932;5.318;2023-05-10T04:43:16;13.50;1.40
18392;DHT22;9322;50.932;5.318;2023-05-10T04:45:41;13.60;1.40
18392;DHT22;9322;50.932;5.318;2023-05-10T04:48:07;13.60;1.40
18392;DHT22;9322;50.932;5.318;2023-05-10T04:50:33;13.60;1.40
18392;DHT22;9322;50.932;5.318;2023-05-10T04:52:59;13.60;1.40
18392;DHT22;9322;50.932;5.318;2023-05-10T04:55:24;13.50;1.40
18392;DHT22;9322;50.932;5.318;2023-05-10T04:57:50;13.40;1.40
18392;DHT22;9322;50.932;5.318;2023-05-10T05:00:16;13.50;1.40
18392;DHT22;9322;50.932;5.318;2023-05-10T05:02:43;13.40;1.40
18392;DHT22;9322;50.932;5.318;2023-05-10T05:05:11;13.40;1.40
18392;DHT22;9322;50.932;5.318;2023-05-10T05:07:36;13.50;1.40
18392;DHT22;9322;50.932;5.318;2023-05-10T05:10:05;13.50;1.40
18392;DHT22;9322;50.932;5.318;2023-05-10T05:12:31;13.40;1.40
18392;DHT22;9322;50.932;5.318;2023-05-10T05:14:56;13.40;1.40
18392;DHT22;9322;50.932;5.318;2023-05-10T05:17:22;13.40;1.40
18392;DHT22;9322;50.932;5.318;2023-05-10T05:19:48;13.50;1.40
18392;DHT22;9322;50.932;5.318;2023-05-10T05:22:13;13.50;1.40
18392;DHT22;9322;50.932;5.318;2023-05-10T05:24:39;13.50;1.40
18392;DHT22;9322;50.932;5.318;2023-05-10T05:27:05;13.40;1.40
18392;DHT22;9322;50.932;5.318;2023-05-10T05:29:31;13.50;1.40
18392;DHT22;9322;50.932;5.318;2023-05-10T05:31:57;13.40;1.40
18392;DHT22;9322;50.932;5.318;2023-05-10T05:34:23;13.30;1.40
18392;DHT22;9322;50.932;5.318;2023-05-10T05:36:49;13.30;1.40
18392;DHT22;9322;50.932;5.318;2023-05-10T05:39:15;13.30;1.40
18392;DHT22;9322;50.932;5.318;2023-05-10T05:41:41;13.40;1.40
18392;DHT22;9322;50.932;5.318;2023-05-10T05:44:07;13.50;1.40
18392;DHT22;9322;50.932;5.318;2023-05-10T05:46:32;13.50;1.40
18392;DHT22;9322;50.932;5.318;2023-05-10T05:48:58;13.50;1.40
18392;DHT22;9322;50.932;5.318;2023-05-10T05:51:23;13.60;1.40
18392;DHT22;9322;50.932;5.318;2023-05-10T05:53:49;13.70;1.40
18392;DHT22;9322;50.932;5.318;2023-05-10T05:56:15;13.70;1.40
18392;DHT22;9322;50.932;5.318;2023-05-10T05:58:40;13.90;1.40
18392;DHT22;9322;50.932;5.318;2023-05-10T06:01:06;13.90;1.40
18392;DHT22;9322;50.932;5.318;2023-05-10T06:03:33;14.00;1.40
18392;DHT22;9322;50.932;5.318;2023-05-10T06:05:58;13.90;1.40
18392;DHT22;9322;50.932;5.318;2023-05-10T06:08:24;13.90;1.40
18392;DHT22;9322;50.932;5.318;2023-05-10T06:10:50;13.90;1.40
18392;DHT22;9322;50.932;5.318;2023-05-10T06:13:15;13.90;1.40
18392;DHT22;9322;50.932;5.318;2023-05-10T06:15:41;13.80;1.40
18392;DHT22;9322;50.932;5.318;2023-05-10T06:18:06;13.90;1.40
18392;DHT22;9322;50.932;5.318;2023-05-10T06:20:32;13.90;1.40
18392;DHT22;9322;50.932;5.318;2023-05-10T06:22:58;14.00;1.40
18392;DHT22;9322;50.932;5.318;2023-05-10T06:25:24;14.00;1.40
18392;DHT22;9322;50.932;5.318;2023-05-10T06:27:49;14.00;1.40
18392;DHT22;9322;50.932;5.318;2023-05-10T06:30:16;14.10;1.40
18392;DHT22;9322;50.932;5.318;2023-05-10T06:32:41;13.90;1.40
18392;DHT22;9322;50.932;5.318;2023-05-10T06:35:09;14.00;1.40
18392;DHT22;9322;50.932;5.318;2023-05-10T06:37:35;14.10;1.40
18392;DHT22;9322;50.932;5.318;2023-05-10T06:40:00;14.20;1.40
18392;DHT22;9322;50.932;5.318;2023-05-10T06:42:27;14.30;1.40
18392;DHT22;9322;50.932;5.318;2023-05-10T06:44:52;14.20;1.40
18392;DHT22;9322;50.932;5.318;2023-05-10T06:47:18;14.30;1.40
18392;DHT22;9322;50.932;5.318;2023-05-10T06:49:44;14.20;1.40
18392;DHT22;9322;50.932;5.318;2023-05-10T06:52:09;14.30;1.40
18392;DHT22;9322;50.932;5.318;2023-05-10T06:54:35;14.40;1.40
18392;DHT22;9322;50.932;5.318;2023-05-10T06:57:01;14.20;1.40
18392;DHT22;9322;50.932;5.318;2023-05-10T06:59:28;14.20;1.40
18392;DHT22;9322;50.932;5.318;2023-05-10T07:01:54;14.20;1.40
18392;DHT22;9322;50.932;5.318;2023-05-10T07:04:20;14.10;1.40
18392;DHT22;9322;50.932;5.318;2023-05-10T07:06:45;14.10;1.40
18392;DHT22;9322;50.932;5.318;2023-05-10T07:09:12;14.10;1.40
18392;DHT22;9322;50.932;5.318;2023-05-10T07:11:38;14.10;1.40
18392;DHT22;9322;50.932;5.318;2023-05-10T07:14:04;14.00;1.40
18392;DHT22;9322;50.932;5.318;2023-05-10T07:16:30;14.20;1.40
18392;DHT22;9322;50.932;5.318;2023-05-10T07:18:56;14.10;1.40
18392;DHT22;9322;50.932;5.318;2023-05-10T07:21:22;14.10;1.40
18392;DHT22;9322;50.932;5.318;2023-05-10T07:23:49;14.00;1.40
18392;DHT22;9322;50.932;5.318;2023-05-10T07:26:15;14.10;1.40
18392;DHT22;9322;50.932;5.318;2023-05-10T07:28:42;14.10;1.40
18392;DHT22;9322;50.932;5.318;2023-05-10T07:31:07;14.00;1.40
18392;DHT22;9322;50.932;5.318;2023-05-10T07:33:33;14.10;1.40
18392;DHT22;9322;50.932;5.318;2023-05-10T07:35:59;14.10;1.40
18392;DHT22;9322;50.932;5.318;2023-05-10T07:38:24;14.20;1.40
18392;DHT22;9322;50.932;5.318;2023-05-10T07:40:50;14.20;1.40
18392;DHT22;9322;50.932;5.318;2023-05-10T07:43:16;14.30;1.40
18392;DHT22;9322;50.932;5.318;2023-05-10T07:45:41;14.50;1.40
18392;DHT22;9322;50.932;5.318;2023-05-10T07:48:07;14.70;1.40
18392;DHT22;9322;50.932;5.318;2023-05-10T07:50:33;14.80;1.40
18392;DHT22;9322;50.932;5.318;2023-05-10T07:52:59;14.90;1.40
18392;DHT22;9322;50.932;5.318;2023-05-10T07:55:24;15.00;1.40
18392;DHT22;9322;50.932;5.318;2023-05-10T07:57:50;14.80;1.40
18392;DHT22;9322;50.932;5.318;2023-05-10T08:00:20;14.90;1.40
18392;DHT22;9322;50.932;5.318;2023-05-10T08:02:46;15.00;1.40
18392;DHT22;9322;50.932;5.318;2023-05-10T08:05:12;15.10;1.40
18392;DHT22;9322;50.932;5.318;2023-05-10T08:07:39;15.00;1.40
18392;DHT22;9322;50.932;5.318;2023-05-10T08:10:05;15.00;1.40
18392;DHT22;9322;50.932;5.318;2023-05-10T08:12:31;14.80;1.40
18392;DHT22;9322;50.932;5.318;2023-05-10T08:14:57;14.60;1.40
18392;DHT22;9322;50.932;5.318;2023-05-10T08:17:22;14.30;1.40
18392;DHT22;9322;50.932;5.318;2023-05-10T08:19:48;14.20;1.40
18392;DHT22;9322;50.932;5.318;2023-05-10T08:22:14;14.20;1.40
18392;DHT22;9322;50.932;5.318;2023-05-10T08:24:39;14.00;1.40
18392;DHT22;9322;50.932;5.318;2023-05-10T08:27:08;13.90;1.40
18392;DHT22;9322;50.932;5.318;2023-05-10T08:29:34;13.70;1.40
18392;DHT22;9322;50.932;5.318;2023-05-10T08:31:59;13.70;1.40
18392;DHT22;9322;50.932;5.318;2023-05-10T08:34:26;13.90;1.40
18392;DHT22;9322;50.932;5.318;2023-05-10T08:36:52;14.10;1.40
18392;DHT22;9322;50.932;5.318;2023-05-10T08:39:18;13.90;1.40
18392;DHT22;9322;50.932;5.318;2023-05-10T08:41:44;14.20;1.40
18392;DHT22;9322;50.932;5.318;2023-05-10T08:44:12;13.90;1.40
18392;DHT22;9322;50.932;5.318;2023-05-10T08:46:41;13.90;1.40
18392;DHT22;9322;50.932;5.318;2023-05-10T08:49:13;14.00;1.40
18392;DHT22;9322;50.932;5.318;2023-05-10T08:51:42;13.90;1.40
18392;DHT22;9322;50.932;5.318;2023-05-10T08:54:09;13.90;1.40
18392;DHT22;9322;50.932;5.318;2023-05-10T08:56:35;13.70;1.40
18392;DHT22;9322;50.932;5.318;2023-05-10T08:59:01;13.60;1.40
18392;DHT22;9322;50.932;5.318;2023-05-10T09:01:27;13.70;1.40
18392;DHT22;9322;50.932;5.318;2023-05-10T09:03:53;13.70;1.40
18392;DHT22;9322;50.932;5.318;2023-05-10T09:06:19;13.70;1.40
18392;DHT22;9322;50.932;5.318;2023-05-10T09:08:45;13.60;1.40
18392;DHT22;9322;50.932;5.318;2023-05-10T09:11:12;13.70;1.40
18392;DHT22;9322;50.932;5.318;2023-05-10T09:13:38;13.60;1.40
18392;DHT22;9322;50.932;5.318;2023-05-10T09:16:04;13.90;1.40
18392;DHT22;9322;50.932;5.318;2023-05-10T09:18:30;13.90;1.40
18392;DHT22;9322;50.932;5.318;2023-05-10T09:20:56;14.20;1.40
18392;DHT22;9322;50.932;5.318;2023-05-10T09:23:22;14.50;1.40
18392;DHT22;9322;50.932;5.318;2023-05-10T09:26:02;14.60;1.40
18392;DHT22;9322;50.932;5.318;2023-05-10T09:28:32;14.90;1.40
18392;DHT22;9322;50.932;5.318;2023-05-10T09:30:57;15.10;1.40
18392;DHT22;9322;50.932;5.318;2023-05-10T09:33:23;15.10;1.40
18392;DHT22;9322;50.932;5.318;2023-05-10T09:35:51;14.90;1.40
18392;DHT22;9322;50.932;5.318;2023-05-10T09:38:17;14.90;1.40
18392;DHT22;9322;50.932;5.318;2023-05-10T09:40:53;14.90;1.40
18392;DHT22;9322;50.932;5.318;2023-05-10T09:43:20;15.20;1.40
18392;DHT22;9322;50.932;5.318;2023-05-10T09:45:48;15.10;1.40
18392;DHT22;9322;50.932;5.318;2023-05-10T09:48:15;15.40;1.40
18392;DHT22;9322;50.932;5.318;2023-05-10T09:50:41;15.60;1.40
18392;DHT22;9322;50.932;5.318;2023-05-10T09:53:07;15.80;1.40
18392;DHT22;9322;50.932;5.318;2023-05-10T09:58:02;16.20;1.40
18392;DHT22;9322;50.932;5.318;2023-05-10T10:00:28;16.30;1.40
18392;DHT22;9322;50.932;5.318;2023-05-10T10:02:58;16.70;1.40
18392;DHT22;9322;50.932;5.318;2023-05-10T10:05:34;16.80;1.40
18392;DHT22;9322;50.932;5.318;2023-05-10T10:08:03;16.70;1.40
18392;DHT22;9322;50.932;5.318;2023-05-10T10:10:31;16.70;1.40
18392;DHT22;9322;50.932;5.318;2023-05-10T10:12:58;17.00;1.40
18392;DHT22;9322;50.932;5.318;2023-05-10T10:15:25;16.80;1.40
18392;DHT22;9322;50.932;5.318;2023-05-10T10:17:52;17.00;1.40
18392;DHT22;9322;50.932;5.318;2023-05-10T10:20:20;16.90;1.40
18392;DHT22;9322;50.932;5.318;2023-05-10T10:22:47;16.30;1.40
18392;DHT22;9322;50.932;5.318;2023-05-10T10:25:15;15.90;1.40
18392;DHT22;9322;50.932;5.318;2023-05-10T10:30:35;16.30;1.40
18392;DHT22;9322;50.932;5.318;2023-05-10T10:36:02;16.40;1.40
18392;DHT22;9322;50.932;5.318;2023-05-10T10:41:36;16.50;1.40
18392;DHT22;9322;50.932;5.318;2023-05-10T10:55:20;16.50;1.40
18392;DHT22;9322;50.932;5.318;2023-05-10T10:57:55;16.50;1.40
18392;DHT22;9322;50.932;5.318;2023-05-10T11:00:38;16.60;1.40
18392;DHT22;9322;50.932;5.318;2023-05-10T11:03:10;16.70;1.40
18392;DHT22;9322;50.932;5.318;2023-05-10T11:05:39;16.80;1.40
18392;DHT22;9322;50.932;5.318;2023-05-10T11:10:36;17.00;1.40
18392;DHT22;9322;50.932;5.318;2023-05-10T11:13:04;16.90;1.40
18392;DHT22;9322;50.932;5.318;2023-05-10T11:15:38;17.00;1.40
18392;DHT22;9322;50.932;5.318;2023-05-10T11:18:21;16.90;1.40
18392;DHT22;9322;50.932;5.318;2023-05-10T11:21:02;16.70;1.40
18392;DHT22;9322;50.932;5.318;2023-05-10T11:26:07;16.60;1.40
18392;DHT22;9322;50.932;5.318;2023-05-10T11:28:47;16.80;1.40
18392;DHT22;9322;50.932;5.318;2023-05-10T11:31:17;17.10;1.40
18392;DHT22;9322;50.932;5.318;2023-05-10T11:33:51;17.50;1.40
18392;DHT22;9322;50.932;5.318;2023-05-10T11:36:23;17.50;1.40
18392;DHT22;9322;50.932;5.318;2023-05-10T11:38:49;17.50;1.40
18392;DHT22;9322;50.932;5.318;2023-05-10T11:41:16;17.30;1.40
18392;DHT22;9322;50.932;5.318;2023-05-10T11:43:42;17.60;1.40
18392;DHT22;9322;50.932;5.318;2023-05-10T11:46:12;17.80;1.40
18392;DHT22;9322;50.932;5.318;2023-05-10T11:48:42;17.90;1.40
18392;DHT22;9322;50.932;5.318;2023-05-10T11:51:08;18.00;1.40
18392;DHT22;9322;50.932;5.318;2023-05-10T11:53:35;17.70;1.40
18392;DHT22;9322;50.932;5.318;2023-05-10T11:56:05;17.70;1.40
18392;DHT22;9322;50.932;5.318;2023-05-10T11:58:32;17.30;1.40
18392;DHT22;9322;50.932;5.318;2023-05-10T12:01:02;17.40;1.40
18392;DHT22;9322;50.932;5.318;2023-05-10T12:03:28;17.60;1.40
18392;DHT22;9322;50.932;5.318;2023-05-10T12:05:55;17.30;1.40
18392;DHT22;9322;50.932;5.318;2023-05-10T12:08:28;17.50;1.40
18392;DHT22;9322;50.932;5.318;2023-05-10T12:11:06;17.30;1.40
18392;DHT22;9322;50.932;5.318;2023-05-10T12:13:32;17.30;1.40
18392;DHT22;9322;50.932;5.318;2023-05-10T12:16:19;17.60;1.40
18392;DHT22;9322;50.932;5.318;2023-05-10T12:18:45;17.40;1.40
18392;DHT22;9322;50.932;5.318;2023-05-10T12:21:13;17.20;1.40
18392;DHT22;9322;50.932;5.318;2023-05-10T12:23:40;17.30;1.40
18392;DHT22;9322;50.932;5.318;2023-05-10T12:26:09;17.20;1.40
18392;DHT22;9322;50.932;5.318;2023-05-10T12:28:35;17.00;1.40
18392;DHT22;9322;50.932;5.318;2023-05-10T12:31:01;17.40;1.40
18392;DHT22;9322;50.932;5.318;2023-05-10T12:33:38;17.50;1.40
18392;DHT22;9322;50.932;5.318;2023-05-10T12:36:05;17.50;1.40
18392;DHT22;9322;50.932;5.318;2023-05-10T12:41:04;18.00;1.40
18392;DHT22;9322;50.932;5.318;2023-05-10T12:43:30;18.30;1.40
18392;DHT22;9322;50.932;5.318;2023-05-10T12:45:56;18.40;1.40
18392;DHT22;9322;50.932;5.318;2023-05-10T12:48:22;18.20;1.40
18392;DHT22;9322;50.932;5.318;2023-05-10T12:50:48;18.00;1.40
18392;DHT22;9322;50.932;5.318;2023-05-10T12:53:14;17.80;1.40
18392;DHT22;9322;50.932;5.318;2023-05-10T12:55:44;18.40;1.40
18392;DHT22;9322;50.932;5.318;2023-05-10T12:58:10;18.70;1.40
18392;DHT22;9322;50.932;5.318;2023-05-10T13:00:35;18.90;1.40
18392;DHT22;9322;50.932;5.318;2023-05-10T13:03:04;18.90;1.40
18392;DHT22;9322;50.932;5.318;2023-05-10T13:05:33;19.20;1.40
18392;DHT22;9322;50.932;5.318;2023-05-10T13:07:59;19.30;1.40
18392;DHT22;9322;50.932;5.318;2023-05-10T13:10:24;19.60;1.40
18392;DHT22;9322;50.932;5.318;2023-05-10T13:12:50;19.30;1.40
18392;DHT22;9322;50.932;5.318;2023-05-10T13:15:16;19.10;1.40
18392;DHT22;9322;50.932;5.318;2023-05-10T13:17:42;19.00;1.40
18392;DHT22;9322;50.932;5.318;2023-05-10T13:20:08;19.10;1.40
18392;DHT22;9322;50.932;5.318;2023-05-10T13:22:37;19.50;1.40
18392;DHT22;9322;50.932;5.318;2023-05-10T13:25:03;19.80;1.40
18392;DHT22;9322;50.932;5.318;2023-05-10T13:27:28;19.80;1.40
18392;DHT22;9322;50.932;5.318;2023-05-10T13:29:54;20.10;1.40
18392;DHT22;9322;50.932;5.318;2023-05-10T13:32:20;20.30;1.40
18392;DHT22;9322;50.932;5.318;2023-05-10T13:34:46;20.30;1.40
18392;DHT22;9322;50.932;5.318;2023-05-10T13:37:12;20.10;1.40
18392;DHT22;9322;50.932;5.318;2023-05-10T13:39:37;20.20;1.40
18392;DHT22;9322;50.932;5.318;2023-05-10T13:42:03;20.30;1.40
18392;DHT22;9322;50.932;5.318;2023-05-10T13:44:29;20.20;1.40
18392;DHT22;9322;50.932;5.318;2023-05-10T13:46:56;19.50;1.40
18392;DHT22;9322;50.932;5.318;2023-05-10T13:49:22;19.70;1.40
18392;DHT22;9322;50.932;5.318;2023-05-10T13:51:48;19.80;1.40
18392;DHT22;9322;50.932;5.318;2023-05-10T13:54:13;19.80;1.40
18392;DHT22;9322;50.932;5.318;2023-05-10T13:56:40;18.90;1.40
18392;DHT22;9322;50.932;5.318;2023-05-10T13:59:06;18.70;1.40
18392;DHT22;9322;50.932;5.318;2023-05-10T14:01:33;18.80;1.40
18392;DHT22;9322;50.932;5.318;2023-05-10T14:03:59;18.90;1.40
18392;DHT22;9322;50.932;5.318;2023-05-10T14:06:25;18.80;1.40
18392;DHT22;9322;50.932;5.318;2023-05-10T14:08:51;19.10;1.40
18392;DHT22;9322;50.932;5.318;2023-05-10T14:11:17;19.00;1.40
18392;DHT22;9322;50.932;5.318;2023-05-10T14:13:43;18.80;1.40
18392;DHT22;9322;50.932;5.318;2023-05-10T14:16:08;18.50;1.40
18392;DHT22;9322;50.932;5.318;2023-05-10T14:18:34;18.30;1.40
18392;DHT22;9322;50.932;5.318;2023-05-10T14:21:01;18.50;1.40
18392;DHT22;9322;50.932;5.318;2023-05-10T14:23:26;18.50;1.40
18392;DHT22;9322;50.932;5.318;2023-05-10T14:25:53;18.10;1.40
18392;DHT22;9322;50.932;5.318;2023-05-10T14:28:20;18.40;1.40
18392;DHT22;9322;50.932;5.318;2023-05-10T14:30:46;18.50;1.40
18392;DHT22;9322;50.932;5.318;2023-05-10T14:33:12;18.50;1.40
18392;DHT22;9322;50.932;5.318;2023-05-10T14:35:38;18.50;1.40
18392;DHT22;9322;50.932;5.318;2023-05-10T14:38:04;18.80;1.40
18392;DHT22;9322;50.932;5.318;2023-05-10T14:40:30;18.90;1.40
18392;DHT22;9322;50.932;5.318;2023-05-10T14:42:55;18.80;1.40
18392;DHT22;9322;50.932;5.318;2023-05-10T14:45:22;19.10;1.40
18392;DHT22;9322;50.932;5.318;2023-05-10T14:47:48;19.00;1.40
18392;DHT22;9322;50.932;5.318;2023-05-10T14:50:14;19.00;1.40
18392;DHT22;9322;50.932;5.318;2023-05-10T14:52:39;18.80;1.40
18392;DHT22;9322;50.932;5.318;2023-05-10T14:55:06;19.00;1.40
18392;DHT22;9322;50.932;5.318;2023-05-10T14:57:31;19.50;1.40
18392;DHT22;9322;50.932;5.318;2023-05-10T14:59:57;19.80;1.40
18392;DHT22;9322;50.932;5.318;2023-05-10T15:02:23;19.60;1.40
18392;DHT22;9322;50.932;5.318;2023-05-10T15:04:49;19.70;1.40
18392;DHT22;9322;50.932;5.318;2023-05-10T15:07:14;19.90;1.40
18392;DHT22;9322;50.932;5.318;2023-05-10T15:09:41;19.80;1.40
18392;DHT22;9322;50.932;5.318;2023-05-10T15:12:07;19.50;1.40
18392;DHT22;9322;50.932;5.318;2023-05-10T15:14:33;19.40;1.40
18392;DHT22;9322;50.932;5.318;2023-05-10T15:16:59;19.50;1.40
18392;DHT22;9322;50.932;5.318;2023-05-10T15:19:25;19.20;1.40
18392;DHT22;9322;50.932;5.318;2023-05-10T15:21:51;19.20;1.40
18392;DHT22;9322;50.932;5.318;2023-05-10T15:24:16;19.30;1.40
18392;DHT22;9322;50.932;5.318;2023-05-10T15:26:42;19.60;1.40
18392;DHT22;9322;50.932;5.318;2023-05-10T15:29:08;19.70;1.40
18392;DHT22;9322;50.932;5.318;2023-05-10T15:31:34;19.80;1.40
18392;DHT22;9322;50.932;5.318;2023-05-10T15:34:02;19.30;1.40
18392;DHT22;9322;50.932;5.318;2023-05-10T15:36:28;19.40;1.40
18392;DHT22;9322;50.932;5.318;2023-05-10T15:38:54;19.40;1.40
18392;DHT22;9322;50.932;5.318;2023-05-10T15:41:20;19.30;1.40
18392;DHT22;9322;50.932;5.318;2023-05-10T15:43:46;19.10;1.40
18392;DHT22;9322;50.932;5.318;2023-05-10T15:46:11;18.80;1.40
18392;DHT22;9322;50.932;5.318;2023-05-10T15:48:37;18.90;1.40
18392;DHT22;9322;50.932;5.318;2023-05-10T15:51:04;19.00;1.40
18392;DHT22;9322;50.932;5.318;2023-05-10T15:53:30;19.10;1.40
18392;DHT22;9322;50.932;5.318;2023-05-10T15:55:56;19.50;1.40
18392;DHT22;9322;50.932;5.318;2023-05-10T15:58:22;19.40;1.40
18392;DHT22;9322;50.932;5.318;2023-05-10T16:00:47;19.20;1.40
18392;DHT22;9322;50.932;5.318;2023-05-10T16:03:13;19.30;1.40
18392;DHT22;9322;50.932;5.318;2023-05-10T16:05:39;19.10;1.40
18392;DHT22;9322;50.932;5.318;2023-05-10T16:08:04;18.90;1.40
18392;DHT22;9322;50.932;5.318;2023-05-10T16:10:31;18.60;1.40
18392;DHT22;9322;50.932;5.318;2023-05-10T16:12:57;18.70;1.40
18392;DHT22;9322;50.932;5.318;2023-05-10T16:15:23;18.90;1.40
18392;DHT22;9322;50.932;5.318;2023-05-10T16:17:49;18.80;1.40
18392;DHT22;9322;50.932;5.318;2023-05-10T16:20:15;18.80;1.40
18392;DHT22;9322;50.932;5.318;2023-05-10T16:22:40;18.50;1.40
18392;DHT22;9322;50.932;5.318;2023-05-10T16:25:07;18.50;1.40
18392;DHT22;9322;50.932;5.318;2023-05-10T16:27:32;18.70;1.40
18392;DHT22;9322;50.932;5.318;2023-05-10T16:29:58;18.50;1.40
18392;DHT22;9322;50.932;5.318;2023-05-10T16:32:24;18.70;1.40
18392;DHT22;9322;50.932;5.318;2023-05-10T16:34:50;18.90;1.40
18392;DHT22;9322;50.932;5.318;2023-05-10T16:37:17;18.90;1.40
18392;DHT22;9322;50.932;5.318;2023-05-10T16:39:43;18.50;1.40
18392;DHT22;9322;50.932;5.318;2023-05-10T16:42:08;18.50;1.40
18392;DHT22;9322;50.932;5.318;2023-05-10T16:44:34;18.50;1.40
18392;DHT22;9322;50.932;5.318;2023-05-10T16:47:00;18.50;1.40
18392;DHT22;9322;50.932;5.318;2023-05-10T16:49:27;18.50;1.40
18392;DHT22;9322;50.932;5.318;2023-05-10T16:51:53;18.60;1.40